createdAt,value
2023-05-10T16:17:03.221Z,1.80
2023-05-10T16:19:32.108Z,1.50
2023-05-10T16:21:58.806Z,1.80
2023-05-10T16:24:25.889Z,1.50
2023-05-10T16:26:52.300Z,1.73
2023-05-10T16:29:18.833Z,1.47
2023-05-10T16:31:45.353Z,1.60
2023-05-10T16:34:11.819Z,1.87
2023-05-10T16:36:38.282Z,1.77
2023-05-10T16:39:04.725Z,1.47
2023-05-10T16:41:34.550Z,1.77
2023-05-10T16:44:01.720Z,1.60
2023-05-10T16:46:28.264Z,1.63
2023-05-10T16:48:54.655Z,1.70
2023-05-10T16:51:21.414Z,2.63
2023-05-10T16:53:47.808Z,2.10
2023-05-10T16:56:14.176Z,2.50
2023-05-10T16:58:40.524Z,1.67
2023-05-10T17:01:07.448Z,1.80
2023-05-10T17:03:34.322Z,1.43
2023-05-10T17:06:00.903Z,2.30
2023-05-10T17:08:27.393Z,2.30
2023-05-10T17:10:53.847Z,1.90
2023-05-10T17:13:20.352Z,2.30
2023-05-10T17:15:47.419Z,1.87
2023-05-10T17:18:13.902Z,4.80
2023-05-10T17:20:40.398Z,3.43
2023-05-10T17:23:06.854Z,2.43
2023-05-10T17:25:35.284Z,3.17
2023-05-10T17:28:01.974Z,3.00
2023-05-10T17:30:31.255Z,3.07
2023-05-10T17:32:57.630Z,3.17
2023-05-10T17:35:24.327Z,2.70
2023-05-10T17:37:51.109Z,3.17
2023-05-10T17:40:18.162Z,3.50
2023-05-10T17:42:44.616Z,2.90
2023-05-10T17:45:11.735Z,3.73
2023-05-10T17:47:38.530Z,3.10
2023-05-10T17:50:05.881Z,2.40
2023-05-10T17:52:33.578Z,2.80
2023-05-10T17:55:00.158Z,2.60
2023-05-10T17:57:26.527Z,2.67
2023-05-10T17:59:52.908Z,2.50
2023-05-10T18:02:19.398Z,2.60
2023-05-10T18:04:46.046Z,2.40
2023-05-10T18:07:12.604Z,2.63
2023-05-10T18:09:39.255Z,2.13
2023-05-10T18:12:06.164Z,2.87
2023-05-10T18:14:40.570Z,2.97
2023-05-10T18:17:08.039Z,3.03
2023-05-10T18:19:34.680Z,2.73
2023-05-10T18:22:01.071Z,2.70
2023-05-10T18:24:38.344Z,2.70
2023-05-10T18:27:06.755Z,2.73
2023-05-10T18:29:33.210Z,2.63
2023-05-10T18:31:59.784Z,2.90
2023-05-10T18:34:26.321Z,2.67
2023-05-10T18:36:52.941Z,2.90
2023-05-10T18:39:19.431Z,2.80
2023-05-10T18:41:46.000Z,2.40
2023-05-10T18:44:12.390Z,2.40
2023-05-10T18:46:39.103Z,2.30
2023-05-10T18:49:06.467Z,2.10
2023-05-10T18:51:33.047Z,2.77
2023-05-10T18:53:59.465Z,2.90
2023-05-10T18:56:25.878Z,3.00
2023-05-10T18:58:52.711Z,2.77
2023-05-10T19:01:19.206Z,3.10
2023-05-10T19:03:45.746Z,3.37
2023-05-10T19:06:12.188Z,3.60
2023-05-10T19:08:38.827Z,3.20
2023-05-10T19:11:05.245Z,2.90
2023-05-10T19:13:31.823Z,2.43
2023-05-10T19:16:06.141Z,2.20
2023-05-10T19:18:33.218Z,2.40
2023-05-10T19:21:03.600Z,2.50
2023-05-10T19:23:32.468Z,2.53
2023-05-10T19:26:01.465Z,2.63
2023-05-10T19:28:27.944Z,2.70
2023-05-10T19:30:54.397Z,2.33
2023-05-10T19:33:20.968Z,3.40
2023-05-10T19:35:49.821Z,2.77
2023-05-10T19:38:16.258Z,2.90
2023-05-10T19:40:42.639Z,2.50
2023-05-10T19:43:09.269Z,2.67
2023-05-10T19:45:37.191Z,2.67
2023-05-10T19:48:03.845Z,2.90
2023-05-10T19:50:30.293Z,2.73
2023-05-10T19:52:58.385Z,2.73
2023-05-10T19:55:30.822Z,2.50
2023-05-10T19:57:57.834Z,2.83
2023-05-10T20:00:24.900Z,3.00
2023-05-10T20:02:51.349Z,3.00
2023-05-10T20:05:18.033Z,2.80
2023-05-10T20:07:44.761Z,2.80
2023-05-10T20:10:11.516Z,3.03
2023-05-10T20:12:37.953Z,2.90
2023-05-10T20:15:06.857Z,2.93
2023-05-10T20:17:33.446Z,3.73
2023-05-10T20:19:59.866Z,3.23
2023-05-10T20:22:26.348Z,3.13
2023-05-10T20:24:54.406Z,2.97
2023-05-10T20:27:22.452Z,3.70
2023-05-10T20:29:48.975Z,3.80
2023-05-10T20:32:15.321Z,3.60
2023-05-10T20:34:41.701Z,3.60
2023-05-10T20:37:08.130Z,3.90
2023-05-10T20:39:34.533Z,3.83
2023-05-10T20:42:00.907Z,4.40
2023-05-10T20:44:27.293Z,4.07
2023-05-10T20:46:53.726Z,3.80
2023-05-10T20:49:20.352Z,5.00
2023-05-10T20:51:46.775Z,4.40
2023-05-10T20:54:14.483Z,4.30
2023-05-10T20:56:40.926Z,4.50
2023-05-10T20:59:07.317Z,4.50
2023-05-10T21:01:33.722Z,4.83
2023-05-10T21:04:00.221Z,4.03
2023-05-10T21:06:26.600Z,4.10
2023-05-10T21:08:52.980Z,5.17
2023-05-10T21:11:19.393Z,5.07
2023-05-10T21:13:45.780Z,4.90
2023-05-10T21:16:12.291Z,5.10
2023-05-10T21:18:38.792Z,5.27
2023-05-10T21:21:05.199Z,5.43
2023-05-10T21:23:33.139Z,5.70
2023-05-10T21:26:02.837Z,5.03
2023-05-10T21:28:29.222Z,4.80
2023-05-10T21:30:55.811Z,4.53
2023-05-10T21:33:22.308Z,5.57
2023-05-10T21:35:48.862Z,5.47
2023-05-10T21:38:15.616Z,5.77
2023-05-10T21:40:42.046Z,4.43
2023-05-10T21:43:08.448Z,4.93
2023-05-10T21:45:36.339Z,5.37
2023-05-10T21:48:02.866Z,5.80
2023-05-10T21:50:29.313Z,4.90
2023-05-10T21:52:56.240Z,5.70
2023-05-10T21:55:22.743Z,5.40
2023-05-10T21:57:50.120Z,5.50
2023-05-10T22:00:17.289Z,6.07
2023-05-10T22:02:43.999Z,5.73
2023-05-10T22:05:10.583Z,6.00
2023-05-10T22:07:36.973Z,6.63
2023-05-10T22:10:03.954Z,6.63
2023-05-10T22:12:30.384Z,6.00
2023-05-10T22:15:09.432Z,5.40
2023-05-10T22:17:41.245Z,5.03
2023-05-10T22:20:08.543Z,5.10
2023-05-10T22:22:34.976Z,6.07
2023-05-10T22:25:01.337Z,6.07
2023-05-10T22:27:27.750Z,5.73
2023-05-10T22:29:54.186Z,5.93
2023-05-10T22:32:20.576Z,6.00
2023-05-10T22:34:46.987Z,5.53
2023-05-10T22:37:17.962Z,6.93
2023-05-10T22:39:47.188Z,6.60
2023-05-10T22:42:13.569Z,7.03
2023-05-10T22:44:40.028Z,5.87
2023-05-10T22:47:07.943Z,5.40
2023-05-10T22:49:34.496Z,6.93
2023-05-10T22:52:01.370Z,5.30
2023-05-10T22:54:27.857Z,7.00
2023-05-10T22:56:54.419Z,8.50
2023-05-10T22:59:20.996Z,8.23
2023-05-10T23:01:48.868Z,7.63
2023-05-10T23:04:15.791Z,8.43
2023-05-10T23:06:42.237Z,8.43
2023-05-10T23:09:08.977Z,8.80
2023-05-10T23:11:35.388Z,8.73
2023-05-10T23:14:01.888Z,8.47
2023-05-10T23:16:28.398Z,9.17
2023-05-10T23:18:55.247Z,9.63
2023-05-10T23:21:21.760Z,9.97
2023-05-10T23:23:48.644Z,9.57
2023-05-10T23:26:15.075Z,9.47
2023-05-10T23:28:41.454Z,9.37
2023-05-10T23:31:07.900Z,9.43
2023-05-10T23:33:34.317Z,9.57
2023-05-10T23:36:00.839Z,9.40
2023-05-10T23:38:27.259Z,10.13
2023-05-10T23:40:54.386Z,10.20
2023-05-10T23:43:21.608Z,9.83
2023-05-10T23:45:57.955Z,10.30
2023-05-10T23:48:24.404Z,9.83
2023-05-10T23:50:50.981Z,11.00
2023-05-10T23:53:17.432Z,10.13
2023-05-10T23:55:44.054Z,10.77
2023-05-10T23:58:10.655Z,10.57
